Terminal Aerodrome Forecast
Issued by NWS Twin Cities, MN

Home | Current Version | Previous Version | Graphics & Text | Print | Product List | Glossary On
Versions: 1 2 3 4 5 6 7 8 9 10 11 12 13 14
000
FTUS43 KMPX 211100
TAFSTC
TAF
KSTC 211131Z 2112/2212 32008KT P6SM SCT070
     FM211500 32017G24KT P6SM SKC
     FM220200 33009KT P6SM SKC
     FM220600 33004KT P6SM SCT200=

USA.gov is the U.S. government's official web portal to all federal, state and local government web resources and services.